Back to top

Rawlins, WY weather

Rawlins Municipal Airport/Harvey Field, Rawlins, WY: 12/11/2019 09:53
Visibility9 statute milessnow flakes
View 7-Day Forecast
Area Summary
Sky/CloudsSky Clear
Weather [last 24 hours]Light snow [snow began 09:45 ]
Pressure30.1 in.Hg (1019 hPa)
Dew Point16 °F (-8.9 °C)
Relative Humidity55.4 %
Hourly PrecipitationTrace
Last 24-Hour Precip.Trace
Temperature30 °F (-1.1 °C)red thermometer
Wind Chill15.7 °F (-9.08 °C) @ gust 13.4 °F (-10.4 °C)
Reading TimeMinimum to Maximum Temperature
6-hr ending 12/11@04:5319.9 °F to 26.1 °F (-6.7 °C to -3.3 °C)
6-hr ending 12/10@22:5323 °F to 27 °F (-5 °C to -2.8 °C)
24-hr ending 12/10@23:5319 °F to 28.9 °F (-7.2 °C to -1.7 °C)
Wind26.5 MPH (23 KT) gusting to 38 MPH (33 KT)green arrow pointing 202.5 degrees
Wind FromSouth/Southwest (210 Degrees)
Last Hour's Peak Wind38 MPH (33 KT) on 12/11@09:47
Last Hour's Peak Wind FromSouth/Southwest (210 Degrees)
Rolling 24-hr Peak Wind38 MPH (33 KT) on 12/11@09:47
Rolling 24-hr Peak Wind FromSouth/Southwest (210 Degrees)
Twilight Begins06:53Sunshine Yesterday
Sunrise07:25N/A
Sunset16:40
Twilight Ends17:11
METARKRWL 111653Z AUTO 21023G33KT 9SM -SN CLR M01/M09 A3010 RMK AO2 PK WND 21033/1647 SNB45 SLP211 P0000 T10111089
Tags: